sensor_id;sensor_type;location;lat;lon;timestamp;P1;durP1;ratioP1;P2;durP2;ratioP2
35648;SDS011;21768;48.562;13.414;2023-02-28T00:00:04;9.15;;;4.95;;
35648;SDS011;21768;48.562;13.414;2023-02-28T00:02:40;12.00;;;5.22;;
35648;SDS011;21768;48.562;13.414;2023-02-28T00:05:07;31.23;;;9.32;;
35648;SDS011;21768;48.562;13.414;2023-02-28T00:07:35;12.48;;;5.22;;
35648;SDS011;21768;48.562;13.414;2023-02-28T00:10:00;14.32;;;4.72;;
35648;SDS011;21768;48.562;13.414;2023-02-28T00:12:26;10.10;;;4.75;;
35648;SDS011;21768;48.562;13.414;2023-02-28T00:14:52;10.52;;;4.70;;
35648;SDS011;21768;48.562;13.414;2023-02-28T00:17:18;13.90;;;5.47;;
35648;SDS011;21768;48.562;13.414;2023-02-28T00:19:46;11.38;;;5.13;;
35648;SDS011;21768;48.562;13.414;2023-02-28T00:22:13;9.57;;;5.05;;
35648;SDS011;21768;48.562;13.414;2023-02-28T00:24:40;10.43;;;5.47;;
35648;SDS011;21768;48.562;13.414;2023-02-28T00:27:05;11.20;;;5.30;;
35648;SDS011;21768;48.562;13.414;2023-02-28T00:29:30;10.68;;;4.93;;
35648;SDS011;21768;48.562;13.414;2023-02-28T00:31:56;11.55;;;5.88;;
35648;SDS011;21768;48.562;13.414;2023-02-28T00:34:21;12.52;;;5.70;;
35648;SDS011;21768;48.562;13.414;2023-02-28T00:36:47;10.10;;;5.13;;
35648;SDS011;21768;48.562;13.414;2023-02-28T00:39:15;11.02;;;5.28;;
35648;SDS011;21768;48.562;13.414;2023-02-28T00:41:40;11.15;;;5.80;;
35648;SDS011;21768;48.562;13.414;2023-02-28T00:44:06;11.93;;;5.03;;
35648;SDS011;21768;48.562;13.414;2023-02-28T00:46:31;10.55;;;5.00;;
35648;SDS011;21768;48.562;13.414;2023-02-28T00:48:57;20.35;;;6.82;;
35648;SDS011;21768;48.562;13.414;2023-02-28T00:51:22;125.75;;;30.75;;
35648;SDS011;21768;48.562;13.414;2023-02-28T00:53:47;42.30;;;14.10;;
35648;SDS011;21768;48.562;13.414;2023-02-28T00:56:13;16.42;;;7.68;;
35648;SDS011;21768;48.562;13.414;2023-02-28T00:58:38;13.65;;;6.20;;
35648;SDS011;21768;48.562;13.414;2023-02-28T01:01:04;12.63;;;5.32;;
35648;SDS011;21768;48.562;13.414;2023-02-28T01:03:29;11.52;;;5.45;;
35648;SDS011;21768;48.562;13.414;2023-02-28T01:05:55;10.43;;;5.22;;
35648;SDS011;21768;48.562;13.414;2023-02-28T01:08:20;13.60;;;6.22;;
35648;SDS011;21768;48.562;13.414;2023-02-28T01:10:46;15.43;;;6.45;;
35648;SDS011;21768;48.562;13.414;2023-02-28T01:13:12;13.13;;;6.32;;
35648;SDS011;21768;48.562;13.414;2023-02-28T01:15:39;12.43;;;5.72;;
35648;SDS011;21768;48.562;13.414;2023-02-28T01:18:09;11.93;;;5.95;;
35648;SDS011;21768;48.562;13.414;2023-02-28T01:20:36;13.27;;;5.95;;
35648;SDS011;21768;48.562;13.414;2023-02-28T01:23:02;14.48;;;6.80;;
35648;SDS011;21768;48.562;13.414;2023-02-28T01:25:30;11.98;;;5.97;;
35648;SDS011;21768;48.562;13.414;2023-02-28T01:27:56;14.88;;;6.28;;
35648;SDS011;21768;48.562;13.414;2023-02-28T01:30:21;11.55;;;5.57;;
35648;SDS011;21768;48.562;13.414;2023-02-28T01:32:46;8.45;;;4.05;;
35648;SDS011;21768;48.562;13.414;2023-02-28T01:35:12;15.18;;;5.50;;
35648;SDS011;21768;48.562;13.414;2023-02-28T01:37:37;9.80;;;5.07;;
35648;SDS011;21768;48.562;13.414;2023-02-28T01:40:03;13.38;;;6.50;;
35648;SDS011;21768;48.562;13.414;2023-02-28T01:42:29;11.07;;;5.85;;
35648;SDS011;21768;48.562;13.414;2023-02-28T01:47:46;12.38;;;5.18;;
35648;SDS011;21768;48.562;13.414;2023-02-28T01:50:16;15.88;;;5.85;;
35648;SDS011;21768;48.562;13.414;2023-02-28T01:52:44;10.50;;;5.28;;
35648;SDS011;21768;48.562;13.414;2023-02-28T01:55:12;13.70;;;5.45;;
35648;SDS011;21768;48.562;13.414;2023-02-28T01:57:45;12.88;;;5.85;;
35648;SDS011;21768;48.562;13.414;2023-02-28T02:00:14;16.10;;;6.43;;
35648;SDS011;21768;48.562;13.414;2023-02-28T02:02:42;12.32;;;5.97;;
35648;SDS011;21768;48.562;13.414;2023-02-28T02:05:16;14.02;;;5.95;;
35648;SDS011;21768;48.562;13.414;2023-02-28T02:07:44;12.27;;;5.93;;
35648;SDS011;21768;48.562;13.414;2023-02-28T02:18:36;12.50;;;5.50;;
35648;SDS011;21768;48.562;13.414;2023-02-28T02:24:36;43.20;;;13.52;;
35648;SDS011;21768;48.562;13.414;2023-02-28T02:27:37;16.83;;;7.03;;
35648;SDS011;21768;48.562;13.414;2023-02-28T02:36:01;18.08;;;7.28;;
35648;SDS011;21768;48.562;13.414;2023-02-28T02:43:36;12.82;;;6.15;;
35648;SDS011;21768;48.562;13.414;2023-02-28T02:46:14;14.85;;;6.40;;
35648;SDS011;21768;48.562;13.414;2023-02-28T02:49:08;16.83;;;6.97;;
35648;SDS011;21768;48.562;13.414;2023-02-28T02:51:36;21.45;;;6.65;;
35648;SDS011;21768;48.562;13.414;2023-02-28T02:54:05;17.17;;;6.97;;
35648;SDS011;21768;48.562;13.414;2023-02-28T02:56:36;17.02;;;6.32;;
35648;SDS011;21768;48.562;13.414;2023-02-28T02:59:07;12.30;;;6.18;;
35648;SDS011;21768;48.562;13.414;2023-02-28T03:01:36;17.90;;;5.97;;
35648;SDS011;21768;48.562;13.414;2023-02-28T03:04:06;11.57;;;6.20;;
35648;SDS011;21768;48.562;13.414;2023-02-28T03:06:36;13.07;;;6.28;;
35648;SDS011;21768;48.562;13.414;2023-02-28T03:09:01;16.70;;;5.90;;
35648;SDS011;21768;48.562;13.414;2023-02-28T03:11:27;11.77;;;6.20;;
35648;SDS011;21768;48.562;13.414;2023-02-28T03:19:45;15.85;;;6.38;;
35648;SDS011;21768;48.562;13.414;2023-02-28T03:22:24;11.45;;;5.95;;
35648;SDS011;21768;48.562;13.414;2023-02-28T03:27:30;13.23;;;5.53;;
35648;SDS011;21768;48.562;13.414;2023-02-28T03:30:16;16.23;;;6.43;;
35648;SDS011;21768;48.562;13.414;2023-02-28T03:32:54;14.52;;;6.22;;
35648;SDS011;21768;48.562;13.414;2023-02-28T03:35:25;13.82;;;6.38;;
35648;SDS011;21768;48.562;13.414;2023-02-28T03:37:58;14.18;;;6.53;;
35648;SDS011;21768;48.562;13.414;2023-02-28T03:40:29;19.42;;;6.90;;
35648;SDS011;21768;48.562;13.414;2023-02-28T03:42:59;14.70;;;5.95;;
35648;SDS011;21768;48.562;13.414;2023-02-28T03:45:29;12.20;;;5.93;;
35648;SDS011;21768;48.562;13.414;2023-02-28T03:48:01;12.43;;;6.15;;
35648;SDS011;21768;48.562;13.414;2023-02-28T03:55:56;15.88;;;6.63;;
35648;SDS011;21768;48.562;13.414;2023-02-28T03:58:30;13.52;;;7.07;;
35648;SDS011;21768;48.562;13.414;2023-02-28T04:01:13;15.82;;;7.03;;
35648;SDS011;21768;48.562;13.414;2023-02-28T04:03:50;17.17;;;6.22;;
35648;SDS011;21768;48.562;13.414;2023-02-28T04:06:17;13.38;;;6.53;;
35648;SDS011;21768;48.562;13.414;2023-02-28T04:08:45;11.75;;;6.30;;
35648;SDS011;21768;48.562;13.414;2023-02-28T04:11:21;17.70;;;6.47;;
35648;SDS011;21768;48.562;13.414;2023-02-28T04:13:56;16.35;;;7.03;;
35648;SDS011;21768;48.562;13.414;2023-02-28T04:16:21;13.88;;;6.80;;
35648;SDS011;21768;48.562;13.414;2023-02-28T04:18:46;14.52;;;6.32;;
35648;SDS011;21768;48.562;13.414;2023-02-28T04:21:12;17.92;;;7.40;;
35648;SDS011;21768;48.562;13.414;2023-02-28T04:23:38;18.40;;;7.43;;
35648;SDS011;21768;48.562;13.414;2023-02-28T04:26:03;14.10;;;7.05;;
35648;SDS011;21768;48.562;13.414;2023-02-28T04:28:30;21.45;;;6.80;;
35648;SDS011;21768;48.562;13.414;2023-02-28T04:30:56;13.60;;;6.93;;
35648;SDS011;21768;48.562;13.414;2023-02-28T04:33:22;15.90;;;6.88;;
35648;SDS011;21768;48.562;13.414;2023-02-28T04:35:48;15.50;;;6.55;;
35648;SDS011;21768;48.562;13.414;2023-02-28T04:38:22;16.83;;;6.60;;
35648;SDS011;21768;48.562;13.414;2023-02-28T04:40:47;16.05;;;7.45;;
35648;SDS011;21768;48.562;13.414;2023-02-28T04:43:13;17.92;;;7.10;;
35648;SDS011;21768;48.562;13.414;2023-02-28T04:45:38;15.65;;;6.95;;
35648;SDS011;21768;48.562;13.414;2023-02-28T04:48:03;21.85;;;7.40;;
35648;SDS011;21768;48.562;13.414;2023-02-28T04:50:29;16.00;;;6.95;;
35648;SDS011;21768;48.562;13.414;2023-02-28T04:52:54;14.73;;;7.20;;
35648;SDS011;21768;48.562;13.414;2023-02-28T04:55:19;18.30;;;6.88;;
35648;SDS011;21768;48.562;13.414;2023-02-28T04:57:45;14.55;;;6.65;;
35648;SDS011;21768;48.562;13.414;2023-02-28T05:00:10;19.33;;;6.90;;
35648;SDS011;21768;48.562;13.414;2023-02-28T05:02:36;16.88;;;7.38;;
35648;SDS011;21768;48.562;13.414;2023-02-28T05:05:03;16.65;;;7.13;;
35648;SDS011;21768;48.562;13.414;2023-02-28T05:07:28;17.73;;;7.68;;
35648;SDS011;21768;48.562;13.414;2023-02-28T05:09:54;17.20;;;7.70;;
35648;SDS011;21768;48.562;13.414;2023-02-28T05:12:19;18.58;;;7.03;;
35648;SDS011;21768;48.562;13.414;2023-02-28T05:14:45;14.15;;;6.70;;
35648;SDS011;21768;48.562;13.414;2023-02-28T05:17:10;22.02;;;7.60;;
35648;SDS011;21768;48.562;13.414;2023-02-28T05:19:35;17.70;;;6.95;;
35648;SDS011;21768;48.562;13.414;2023-02-28T05:22:01;14.65;;;6.65;;
35648;SDS011;21768;48.562;13.414;2023-02-28T05:24:27;14.90;;;6.25;;
35648;SDS011;21768;48.562;13.414;2023-02-28T05:26:53;17.10;;;6.78;;
35648;SDS011;21768;48.562;13.414;2023-02-28T05:29:19;19.13;;;7.38;;
35648;SDS011;21768;48.562;13.414;2023-02-28T05:31:45;13.77;;;6.32;;
35648;SDS011;21768;48.562;13.414;2023-02-28T05:34:11;17.75;;;7.22;;
35648;SDS011;21768;48.562;13.414;2023-02-28T05:36:37;15.27;;;6.72;;
35648;SDS011;21768;48.562;13.414;2023-02-28T05:39:05;15.15;;;7.07;;
35648;SDS011;21768;48.562;13.414;2023-02-28T05:41:32;18.95;;;7.57;;
35648;SDS011;21768;48.562;13.414;2023-02-28T05:43:57;19.88;;;7.05;;
35648;SDS011;21768;48.562;13.414;2023-02-28T05:46:24;16.83;;;7.22;;
35648;SDS011;21768;48.562;13.414;2023-02-28T05:48:50;14.02;;;6.95;;
35648;SDS011;21768;48.562;13.414;2023-02-28T05:51:16;14.82;;;6.70;;
35648;SDS011;21768;48.562;13.414;2023-02-28T05:53:42;17.63;;;7.25;;
35648;SDS011;21768;48.562;13.414;2023-02-28T05:56:07;17.95;;;7.18;;
35648;SDS011;21768;48.562;13.414;2023-02-28T05:58:33;20.73;;;7.30;;
35648;SDS011;21768;48.562;13.414;2023-02-28T06:01:00;17.80;;;7.13;;
35648;SDS011;21768;48.562;13.414;2023-02-28T06:03:43;15.95;;;6.90;;
35648;SDS011;21768;48.562;13.414;2023-02-28T06:06:08;16.42;;;7.32;;
35648;SDS011;21768;48.562;13.414;2023-02-28T06:08:34;18.92;;;7.15;;
35648;SDS011;21768;48.562;13.414;2023-02-28T06:11:02;16.65;;;6.78;;
35648;SDS011;21768;48.562;13.414;2023-02-28T06:13:28;14.88;;;6.97;;
35648;SDS011;21768;48.562;13.414;2023-02-28T06:15:53;20.13;;;6.68;;
35648;SDS011;21768;48.562;13.414;2023-02-28T06:18:19;20.40;;;7.93;;
35648;SDS011;21768;48.562;13.414;2023-02-28T06:20:44;16.80;;;7.57;;
35648;SDS011;21768;48.562;13.414;2023-02-28T06:23:09;16.65;;;6.68;;
35648;SDS011;21768;48.562;13.414;2023-02-28T06:25:35;20.98;;;7.60;;
35648;SDS011;21768;48.562;13.414;2023-02-28T06:28:00;19.15;;;7.63;;
35648;SDS011;21768;48.562;13.414;2023-02-28T06:30:25;17.15;;;7.68;;
35648;SDS011;21768;48.562;13.414;2023-02-28T06:32:53;16.88;;;7.45;;
35648;SDS011;21768;48.562;13.414;2023-02-28T06:35:19;22.55;;;7.18;;
35648;SDS011;21768;48.562;13.414;2023-02-28T06:37:45;16.30;;;7.22;;
35648;SDS011;21768;48.562;13.414;2023-02-28T06:40:10;15.18;;;7.20;;
35648;SDS011;21768;48.562;13.414;2023-02-28T06:42:37;19.65;;;8.20;;
35648;SDS011;21768;48.562;13.414;2023-02-28T06:45:03;16.15;;;7.45;;
35648;SDS011;21768;48.562;13.414;2023-02-28T06:47:34;13.77;;;7.28;;
35648;SDS011;21768;48.562;13.414;2023-02-28T06:50:00;23.83;;;7.63;;
35648;SDS011;21768;48.562;13.414;2023-02-28T06:52:26;17.63;;;7.05;;
35648;SDS011;21768;48.562;13.414;2023-02-28T06:54:51;14.82;;;6.72;;
35648;SDS011;21768;48.562;13.414;2023-02-28T06:57:25;20.13;;;7.13;;
35648;SDS011;21768;48.562;13.414;2023-02-28T06:59:52;18.25;;;7.15;;
35648;SDS011;21768;48.562;13.414;2023-02-28T07:02:18;23.48;;;7.55;;
35648;SDS011;21768;48.562;13.414;2023-02-28T07:04:43;26.27;;;9.52;;
35648;SDS011;21768;48.562;13.414;2023-02-28T07:07:09;32.15;;;12.43;;
35648;SDS011;21768;48.562;13.414;2023-02-28T07:09:35;16.25;;;7.80;;
35648;SDS011;21768;48.562;13.414;2023-02-28T07:12:00;20.77;;;7.85;;
35648;SDS011;21768;48.562;13.414;2023-02-28T07:14:25;16.42;;;8.60;;
35648;SDS011;21768;48.562;13.414;2023-02-28T07:16:51;15.48;;;8.13;;
35648;SDS011;21768;48.562;13.414;2023-02-28T07:19:16;21.90;;;7.88;;
35648;SDS011;21768;48.562;13.414;2023-02-28T07:21:42;16.48;;;7.25;;
35648;SDS011;21768;48.562;13.414;2023-02-28T07:24:07;15.07;;;7.10;;
35648;SDS011;21768;48.562;13.414;2023-02-28T07:26:33;19.25;;;7.22;;
35648;SDS011;21768;48.562;13.414;2023-02-28T07:29:01;22.77;;;7.93;;
35648;SDS011;21768;48.562;13.414;2023-02-28T07:31:27;19.15;;;6.97;;
35648;SDS011;21768;48.562;13.414;2023-02-28T07:33:52;19.63;;;7.40;;
35648;SDS011;21768;48.562;13.414;2023-02-28T07:36:18;18.55;;;7.30;;
35648;SDS011;21768;48.562;13.414;2023-02-28T07:38:45;16.40;;;7.25;;
35648;SDS011;21768;48.562;13.414;2023-02-28T07:41:15;15.68;;;7.30;;
35648;SDS011;21768;48.562;13.414;2023-02-28T07:43:41;16.92;;;7.97;;
35648;SDS011;21768;48.562;13.414;2023-02-28T07:46:09;17.23;;;8.48;;
35648;SDS011;21768;48.562;13.414;2023-02-28T07:48:36;21.92;;;8.77;;
35648;SDS011;21768;48.562;13.414;2023-02-28T07:51:02;18.23;;;8.25;;
35648;SDS011;21768;48.562;13.414;2023-02-28T07:53:28;15.88;;;7.05;;
35648;SDS011;21768;48.562;13.414;2023-02-28T07:55:57;20.40;;;8.77;;
35648;SDS011;21768;48.562;13.414;2023-02-28T07:58:24;21.50;;;8.45;;
35648;SDS011;21768;48.562;13.414;2023-02-28T08:00:51;19.88;;;9.07;;
35648;SDS011;21768;48.562;13.414;2023-02-28T08:03:20;17.13;;;8.20;;
35648;SDS011;21768;48.562;13.414;2023-02-28T08:05:46;17.10;;;7.70;;
35648;SDS011;21768;48.562;13.414;2023-02-28T08:08:13;17.98;;;8.30;;
35648;SDS011;21768;48.562;13.414;2023-02-28T08:10:39;19.33;;;7.55;;
35648;SDS011;21768;48.562;13.414;2023-02-28T08:13:04;19.17;;;7.68;;
35648;SDS011;21768;48.562;13.414;2023-02-28T08:15:30;16.10;;;8.25;;
35648;SDS011;21768;48.562;13.414;2023-02-28T08:17:55;19.88;;;7.53;;
35648;SDS011;21768;48.562;13.414;2023-02-28T08:20:21;17.08;;;8.88;;
35648;SDS011;21768;48.562;13.414;2023-02-28T08:22:48;17.45;;;8.18;;
35648;SDS011;21768;48.562;13.414;2023-02-28T08:25:13;17.45;;;8.93;;
35648;SDS011;21768;48.562;13.414;2023-02-28T08:27:39;16.98;;;8.95;;
35648;SDS011;21768;48.562;13.414;2023-02-28T08:30:05;16.75;;;9.02;;
35648;SDS011;21768;48.562;13.414;2023-02-28T08:32:32;19.88;;;8.07;;
35648;SDS011;21768;48.562;13.414;2023-02-28T08:34:58;17.25;;;8.20;;
35648;SDS011;21768;48.562;13.414;2023-02-28T08:37:23;15.23;;;7.95;;
35648;SDS011;21768;48.562;13.414;2023-02-28T08:39:49;16.10;;;8.20;;
35648;SDS011;21768;48.562;13.414;2023-02-28T08:42:14;15.02;;;8.32;;
35648;SDS011;21768;48.562;13.414;2023-02-28T08:44:40;16.77;;;8.05;;
35648;SDS011;21768;48.562;13.414;2023-02-28T08:47:05;16.35;;;8.00;;
35648;SDS011;21768;48.562;13.414;2023-02-28T08:49:31;13.63;;;7.85;;
35648;SDS011;21768;48.562;13.414;2023-02-28T08:51:57;16.55;;;8.23;;
35648;SDS011;21768;48.562;13.414;2023-02-28T08:54:22;13.63;;;8.00;;
35648;SDS011;21768;48.562;13.414;2023-02-28T08:56:48;16.00;;;8.13;;
35648;SDS011;21768;48.562;13.414;2023-02-28T08:59:14;16.10;;;8.23;;
35648;SDS011;21768;48.562;13.414;2023-02-28T09:01:39;14.35;;;8.32;;
35648;SDS011;21768;48.562;13.414;2023-02-28T09:04:06;12.80;;;7.88;;
35648;SDS011;21768;48.562;13.414;2023-02-28T09:06:33;12.82;;;7.78;;
35648;SDS011;21768;48.562;13.414;2023-02-28T09:08:59;12.57;;;8.02;;
35648;SDS011;21768;48.562;13.414;2023-02-28T09:11:26;15.82;;;9.20;;
35648;SDS011;21768;48.562;13.414;2023-02-28T09:13:52;13.48;;;8.40;;
35648;SDS011;21768;48.562;13.414;2023-02-28T09:16:17;14.30;;;8.43;;
35648;SDS011;21768;48.562;13.414;2023-02-28T09:18:43;11.95;;;8.27;;
35648;SDS011;21768;48.562;13.414;2023-02-28T09:21:12;15.55;;;9.38;;
35648;SDS011;21768;48.562;13.414;2023-02-28T09:23:39;16.33;;;9.25;;
35648;SDS011;21768;48.562;13.414;2023-02-28T09:26:12;18.98;;;9.52;;
35648;SDS011;21768;48.562;13.414;2023-02-28T09:28:42;16.35;;;9.45;;
35648;SDS011;21768;48.562;13.414;2023-02-28T09:31:12;21.00;;;9.15;;
35648;SDS011;21768;48.562;13.414;2023-02-28T09:33:39;19.80;;;9.13;;
35648;SDS011;21768;48.562;13.414;2023-02-28T09:36:04;19.00;;;9.57;;
35648;SDS011;21768;48.562;13.414;2023-02-28T09:38:30;19.92;;;9.88;;
35648;SDS011;21768;48.562;13.414;2023-02-28T09:40:57;17.63;;;10.27;;
35648;SDS011;21768;48.562;13.414;2023-02-28T09:43:26;15.02;;;9.02;;
35648;SDS011;21768;48.562;13.414;2023-02-28T09:45:56;16.35;;;8.95;;
35648;SDS011;21768;48.562;13.414;2023-02-28T09:48:32;16.25;;;8.15;;
35648;SDS011;21768;48.562;13.414;2023-02-28T09:53:51;16.80;;;9.73;;
35648;SDS011;21768;48.562;13.414;2023-02-28T09:56:24;15.40;;;8.73;;
35648;SDS011;21768;48.562;13.414;2023-02-28T09:58:56;15.73;;;9.27;;
35648;SDS011;21768;48.562;13.414;2023-02-28T10:01:31;14.88;;;8.68;;
35648;SDS011;21768;48.562;13.414;2023-02-28T10:11:52;18.88;;;9.55;;
35648;SDS011;21768;48.562;13.414;2023-02-28T10:14:22;14.80;;;8.88;;
35648;SDS011;21768;48.562;13.414;2023-02-28T10:16:56;14.65;;;9.32;;
35648;SDS011;21768;48.562;13.414;2023-02-28T10:19:31;14.15;;;8.85;;
35648;SDS011;21768;48.562;13.414;2023-02-28T10:22:01;21.17;;;9.90;;
35648;SDS011;21768;48.562;13.414;2023-02-28T10:24:37;15.07;;;9.02;;
35648;SDS011;21768;48.562;13.414;2023-02-28T10:27:12;16.77;;;9.23;;
35648;SDS011;21768;48.562;13.414;2023-02-28T10:29:44;16.08;;;9.30;;
35648;SDS011;21768;48.562;13.414;2023-02-28T10:32:12;14.48;;;9.13;;
35648;SDS011;21768;48.562;13.414;2023-02-28T10:34:41;14.65;;;8.48;;
35648;SDS011;21768;48.562;13.414;2023-02-28T10:37:07;14.00;;;9.05;;
35648;SDS011;21768;48.562;13.414;2023-02-28T10:39:45;15.57;;;9.60;;
35648;SDS011;21768;48.562;13.414;2023-02-28T10:42:19;15.32;;;9.50;;
35648;SDS011;21768;48.562;13.414;2023-02-28T10:45:04;14.77;;;9.52;;
35648;SDS011;21768;48.562;13.414;2023-02-28T10:47:41;16.40;;;9.68;;
35648;SDS011;21768;48.562;13.414;2023-02-28T10:53:17;29.02;;;12.55;;
35648;SDS011;21768;48.562;13.414;2023-02-28T10:56:02;26.50;;;13.80;;
35648;SDS011;21768;48.562;13.414;2023-02-28T11:03:47;45.60;;;17.42;;
35648;SDS011;21768;48.562;13.414;2023-02-28T11:06:20;27.55;;;13.85;;
35648;SDS011;21768;48.562;13.414;2023-02-28T11:11:19;24.13;;;12.55;;
35648;SDS011;21768;48.562;13.414;2023-02-28T11:13:46;19.90;;;10.23;;
35648;SDS011;21768;48.562;13.414;2023-02-28T11:16:13;17.77;;;10.30;;
35648;SDS011;21768;48.562;13.414;2023-02-28T11:18:41;17.23;;;9.80;;
35648;SDS011;21768;48.562;13.414;2023-02-28T11:21:15;17.75;;;10.52;;
35648;SDS011;21768;48.562;13.414;2023-02-28T11:23:56;18.92;;;10.27;;
35648;SDS011;21768;48.562;13.414;2023-02-28T11:26:35;15.85;;;9.57;;
35648;SDS011;21768;48.562;13.414;2023-02-28T11:29:11;19.95;;;10.05;;
35648;SDS011;21768;48.562;13.414;2023-02-28T11:31:41;16.92;;;10.30;;
35648;SDS011;21768;48.562;13.414;2023-02-28T11:34:23;17.80;;;10.60;;
35648;SDS011;21768;48.562;13.414;2023-02-28T11:36:51;17.30;;;10.43;;
35648;SDS011;21768;48.562;13.414;2023-02-28T11:39:18;20.27;;;10.10;;
35648;SDS011;21768;48.562;13.414;2023-02-28T11:44:47;17.02;;;10.02;;
35648;SDS011;21768;48.562;13.414;2023-02-28T11:47:24;17.05;;;10.00;;
35648;SDS011;21768;48.562;13.414;2023-02-28T11:50:04;19.85;;;10.38;;
35648;SDS011;21768;48.562;13.414;2023-02-28T11:55:11;18.55;;;11.23;;
35648;SDS011;21768;48.562;13.414;2023-02-28T12:00:27;18.52;;;10.98;;
35648;SDS011;21768;48.562;13.414;2023-02-28T12:13:58;17.85;;;10.70;;
35648;SDS011;21768;48.562;13.414;2023-02-28T12:16:32;16.70;;;10.23;;
35648;SDS011;21768;48.562;13.414;2023-02-28T12:19:13;17.70;;;11.18;;
35648;SDS011;21768;48.562;13.414;2023-02-28T12:22:15;18.15;;;10.82;;
35648;SDS011;21768;48.562;13.414;2023-02-28T12:25:10;19.35;;;11.30;;
35648;SDS011;21768;48.562;13.414;2023-02-28T12:27:49;16.77;;;10.63;;
35648;SDS011;21768;48.562;13.414;2023-02-28T12:30:22;22.60;;;11.38;;
35648;SDS011;21768;48.562;13.414;2023-02-28T12:33:01;16.20;;;10.60;;
35648;SDS011;21768;48.562;13.414;2023-02-28T12:35:34;18.02;;;10.80;;
35648;SDS011;21768;48.562;13.414;2023-02-28T12:38:05;18.42;;;10.48;;
35648;SDS011;21768;48.562;13.414;2023-02-28T12:40:45;19.30;;;10.68;;
35648;SDS011;21768;48.562;13.414;2023-02-28T12:43:16;20.95;;;11.30;;
35648;SDS011;21768;48.562;13.414;2023-02-28T12:48:16;19.73;;;10.80;;
35648;SDS011;21768;48.562;13.414;2023-02-28T12:50:47;24.15;;;12.52;;
35648;SDS011;21768;48.562;13.414;2023-02-28T12:56:19;17.67;;;10.32;;
35648;SDS011;21768;48.562;13.414;2023-02-28T12:58:56;20.40;;;11.35;;
35648;SDS011;21768;48.562;13.414;2023-02-28T13:01:31;19.10;;;10.18;;
35648;SDS011;21768;48.562;13.414;2023-02-28T13:07:06;24.92;;;11.13;;
35648;SDS011;21768;48.562;13.414;2023-02-28T13:09:54;16.48;;;10.55;;
35648;SDS011;21768;48.562;13.414;2023-02-28T13:12:22;17.90;;;10.63;;
35648;SDS011;21768;48.562;13.414;2023-02-28T13:14:48;19.38;;;10.57;;
35648;SDS011;21768;48.562;13.414;2023-02-28T13:17:21;17.20;;;10.35;;
35648;SDS011;21768;48.562;13.414;2023-02-28T13:24:51;19.58;;;10.60;;
35648;SDS011;21768;48.562;13.414;2023-02-28T13:27:37;16.33;;;10.18;;
35648;SDS011;21768;48.562;13.414;2023-02-28T13:34:11;17.75;;;9.55;;
35648;SDS011;21768;48.562;13.414;2023-02-28T13:38:44;17.58;;;10.55;;
35648;SDS011;21768;48.562;13.414;2023-02-28T14:03:12;17.90;;;10.07;;
35648;SDS011;21768;48.562;13.414;2023-02-28T14:06:03;16.27;;;10.02;;
35648;SDS011;21768;48.562;13.414;2023-02-28T14:08:35;18.73;;;10.48;;
35648;SDS011;21768;48.562;13.414;2023-02-28T14:11:05;15.15;;;10.60;;
35648;SDS011;21768;48.562;13.414;2023-02-28T14:16:13;15.65;;;10.98;;
35648;SDS011;21768;48.562;13.414;2023-02-28T14:18:41;15.10;;;10.75;;
35648;SDS011;21768;48.562;13.414;2023-02-28T14:29:25;14.27;;;10.35;;
35648;SDS011;21768;48.562;13.414;2023-02-28T14:31:58;19.08;;;10.68;;
35648;SDS011;21768;48.562;13.414;2023-02-28T14:37:00;17.35;;;10.85;;
35648;SDS011;21768;48.562;13.414;2023-02-28T14:39:27;19.98;;;11.60;;
35648;SDS011;21768;48.562;13.414;2023-02-28T14:41:58;20.10;;;11.35;;
35648;SDS011;21768;48.562;13.414;2023-02-28T14:44:29;18.17;;;11.57;;
35648;SDS011;21768;48.562;13.414;2023-02-28T14:47:01;24.30;;;11.35;;
35648;SDS011;21768;48.562;13.414;2023-02-28T14:52:06;18.05;;;10.52;;
35648;SDS011;21768;48.562;13.414;2023-02-28T14:54:39;24.60;;;11.95;;
35648;SDS011;21768;48.562;13.414;2023-02-28T14:57:06;22.45;;;11.43;;
35648;SDS011;21768;48.562;13.414;2023-02-28T14:59:45;19.52;;;11.57;;
35648;SDS011;21768;48.562;13.414;2023-02-28T15:04:51;20.38;;;11.85;;
35648;SDS011;21768;48.562;13.414;2023-02-28T15:07:21;23.85;;;11.98;;
35648;SDS011;21768;48.562;13.414;2023-02-28T15:12:57;22.70;;;11.50;;
35648;SDS011;21768;48.562;13.414;2023-02-28T15:15:26;22.02;;;12.13;;
35648;SDS011;21768;48.562;13.414;2023-02-28T15:17:54;18.98;;;10.60;;
35648;SDS011;21768;48.562;13.414;2023-02-28T15:20:23;24.52;;;11.75;;
35648;SDS011;21768;48.562;13.414;2023-02-28T15:22:50;21.15;;;11.07;;
35648;SDS011;21768;48.562;13.414;2023-02-28T15:25:20;16.25;;;8.50;;
35648;SDS011;21768;48.562;13.414;2023-02-28T15:27:48;22.83;;;12.00;;
35648;SDS011;21768;48.562;13.414;2023-02-28T15:30:37;20.30;;;11.30;;
35648;SDS011;21768;48.562;13.414;2023-02-28T15:35:44;24.20;;;11.05;;
35648;SDS011;21768;48.562;13.414;2023-02-28T15:38:17;25.55;;;12.20;;
35648;SDS011;21768;48.562;13.414;2023-02-28T15:40:44;22.98;;;11.35;;
35648;SDS011;21768;48.562;13.414;2023-02-28T15:43:31;20.17;;;10.83;;
35648;SDS011;21768;48.562;13.414;2023-02-28T15:48:33;25.85;;;11.32;;
35648;SDS011;21768;48.562;13.414;2023-02-28T15:53:37;19.90;;;11.55;;
35648;SDS011;21768;48.562;13.414;2023-02-28T15:56:29;21.65;;;10.77;;
35648;SDS011;21768;48.562;13.414;2023-02-28T15:58:58;26.67;;;11.75;;
35648;SDS011;21768;48.562;13.414;2023-02-28T16:01:29;22.30;;;11.30;;
35648;SDS011;21768;48.562;13.414;2023-02-28T16:03:58;23.10;;;11.32;;
35648;SDS011;21768;48.562;13.414;2023-02-28T16:06:30;24.55;;;11.52;;
35648;SDS011;21768;48.562;13.414;2023-02-28T16:08:58;27.40;;;11.63;;
35648;SDS011;21768;48.562;13.414;2023-02-28T16:11:23;19.33;;;9.63;;
35648;SDS011;21768;48.562;13.414;2023-02-28T16:13:49;26.20;;;12.48;;
35648;SDS011;21768;48.562;13.414;2023-02-28T16:16:20;21.83;;;11.52;;
35648;SDS011;21768;48.562;13.414;2023-02-28T16:18:47;21.88;;;11.73;;
35648;SDS011;21768;48.562;13.414;2023-02-28T16:21:13;21.92;;;11.13;;
35648;SDS011;21768;48.562;13.414;2023-02-28T16:23:38;23.75;;;11.43;;
35648;SDS011;21768;48.562;13.414;2023-02-28T16:26:04;20.98;;;11.25;;
35648;SDS011;21768;48.562;13.414;2023-02-28T16:28:31;22.98;;;11.32;;
35648;SDS011;21768;48.562;13.414;2023-02-28T16:31:00;21.98;;;11.52;;
35648;SDS011;21768;48.562;13.414;2023-02-28T16:33:28;23.13;;;11.52;;
35648;SDS011;21768;48.562;13.414;2023-02-28T16:35:53;22.55;;;11.00;;
35648;SDS011;21768;48.562;13.414;2023-02-28T16:38:19;25.35;;;11.95;;
35648;SDS011;21768;48.562;13.414;2023-02-28T16:40:44;30.02;;;11.07;;
35648;SDS011;21768;48.562;13.414;2023-02-28T16:43:14;23.50;;;11.05;;
35648;SDS011;21768;48.562;13.414;2023-02-28T16:45:44;22.95;;;10.75;;
35648;SDS011;21768;48.562;13.414;2023-02-28T16:48:14;20.05;;;11.10;;
35648;SDS011;21768;48.562;13.414;2023-02-28T16:50:40;19.10;;;10.45;;
35648;SDS011;21768;48.562;13.414;2023-02-28T16:53:07;20.70;;;10.63;;
35648;SDS011;21768;48.562;13.414;2023-02-28T16:55:32;24.60;;;11.55;;
35648;SDS011;21768;48.562;13.414;2023-02-28T16:58:00;24.00;;;11.27;;
35648;SDS011;21768;48.562;13.414;2023-02-28T17:00:27;24.63;;;12.05;;